sensor_id;sensor_type;location;lat;lon;timestamp;temperature;humidity
46364;DHT22;32071;49.036;9.344;2023-11-21T00:02:04;8.40;99.90
46364;DHT22;32071;49.036;9.344;2023-11-21T00:04:30;8.40;99.90
46364;DHT22;32071;49.036;9.344;2023-11-21T00:06:55;8.40;99.90
46364;DHT22;32071;49.036;9.344;2023-11-21T00:09:21;8.40;99.90
46364;DHT22;32071;49.036;9.344;2023-11-21T00:11:47;8.40;99.90
46364;DHT22;32071;49.036;9.344;2023-11-21T00:14:12;8.40;99.90
46364;DHT22;32071;49.036;9.344;2023-11-21T00:16:40;8.40;99.90
46364;DHT22;32071;49.036;9.344;2023-11-21T00:19:06;8.30;99.90
46364;DHT22;32071;49.036;9.344;2023-11-21T00:21:32;8.30;99.90
46364;DHT22;32071;49.036;9.344;2023-11-21T00:23:57;8.20;99.90
46364;DHT22;32071;49.036;9.344;2023-11-21T00:26:23;8.30;99.90
46364;DHT22;32071;49.036;9.344;2023-11-21T00:28:50;8.30;99.90
46364;DHT22;32071;49.036;9.344;2023-11-21T00:31:15;8.30;99.90
46364;DHT22;32071;49.036;9.344;2023-11-21T00:33:41;8.40;99.90
46364;DHT22;32071;49.036;9.344;2023-11-21T00:36:07;8.40;99.90
46364;DHT22;32071;49.036;9.344;2023-11-21T00:38:35;8.40;99.90
46364;DHT22;32071;49.036;9.344;2023-11-21T00:41:01;8.40;99.90
46364;DHT22;32071;49.036;9.344;2023-11-21T00:43:28;8.40;99.90
46364;DHT22;32071;49.036;9.344;2023-11-21T00:45:53;8.40;99.90
46364;DHT22;32071;49.036;9.344;2023-11-21T00:48:19;8.40;99.90
46364;DHT22;32071;49.036;9.344;2023-11-21T00:50:45;8.30;99.90
46364;DHT22;32071;49.036;9.344;2023-11-21T00:53:10;8.40;99.90
46364;DHT22;32071;49.036;9.344;2023-11-21T00:55:36;8.30;99.90
46364;DHT22;32071;49.036;9.344;2023-11-21T00:58:02;8.30;99.90
46364;DHT22;32071;49.036;9.344;2023-11-21T01:00:29;8.30;99.90
46364;DHT22;32071;49.036;9.344;2023-11-21T01:02:55;8.30;99.90
46364;DHT22;32071;49.036;9.344;2023-11-21T01:05:21;8.30;99.90
46364;DHT22;32071;49.036;9.344;2023-11-21T01:07:47;8.30;99.90
46364;DHT22;32071;49.036;9.344;2023-11-21T01:10:12;8.30;99.90
46364;DHT22;32071;49.036;9.344;2023-11-21T01:12:38;8.30;99.90
46364;DHT22;32071;49.036;9.344;2023-11-21T01:15:07;8.30;99.90
46364;DHT22;32071;49.036;9.344;2023-11-21T01:17:33;8.30;99.90
46364;DHT22;32071;49.036;9.344;2023-11-21T01:20:00;8.30;99.90
46364;DHT22;32071;49.036;9.344;2023-11-21T01:22:26;8.30;99.90
46364;DHT22;32071;49.036;9.344;2023-11-21T01:24:53;8.30;99.90
46364;DHT22;32071;49.036;9.344;2023-11-21T01:27:18;8.40;99.90
46364;DHT22;32071;49.036;9.344;2023-11-21T01:29:44;8.40;99.90
46364;DHT22;32071;49.036;9.344;2023-11-21T01:32:10;8.40;99.90
46364;DHT22;32071;49.036;9.344;2023-11-21T01:34:36;8.40;99.90
46364;DHT22;32071;49.036;9.344;2023-11-21T01:37:01;8.40;99.90
46364;DHT22;32071;49.036;9.344;2023-11-21T01:39:30;8.40;99.90
46364;DHT22;32071;49.036;9.344;2023-11-21T01:41:55;8.40;99.90
46364;DHT22;32071;49.036;9.344;2023-11-21T01:44:24;8.40;99.90
46364;DHT22;32071;49.036;9.344;2023-11-21T01:46:50;8.40;99.90
46364;DHT22;32071;49.036;9.344;2023-11-21T01:49:16;8.40;99.90
46364;DHT22;32071;49.036;9.344;2023-11-21T01:51:45;8.40;99.90
46364;DHT22;32071;49.036;9.344;2023-11-21T01:54:12;8.40;99.90
46364;DHT22;32071;49.036;9.344;2023-11-21T01:56:38;8.40;99.90
46364;DHT22;32071;49.036;9.344;2023-11-21T01:59:04;8.30;99.90
46364;DHT22;32071;49.036;9.344;2023-11-21T02:01:30;8.30;99.90
46364;DHT22;32071;49.036;9.344;2023-11-21T02:03:56;8.40;99.90
46364;DHT22;32071;49.036;9.344;2023-11-21T02:06:21;8.40;99.90
46364;DHT22;32071;49.036;9.344;2023-11-21T02:08:47;8.30;99.90
46364;DHT22;32071;49.036;9.344;2023-11-21T02:11:14;8.40;99.90
46364;DHT22;32071;49.036;9.344;2023-11-21T02:13:39;8.40;99.90
46364;DHT22;32071;49.036;9.344;2023-11-21T02:16:10;8.40;99.90
46364;DHT22;32071;49.036;9.344;2023-11-21T02:18:38;8.40;99.90
46364;DHT22;32071;49.036;9.344;2023-11-21T02:21:05;8.40;99.90
46364;DHT22;32071;49.036;9.344;2023-11-21T02:23:30;8.40;99.90
46364;DHT22;32071;49.036;9.344;2023-11-21T02:25:56;8.30;99.90
46364;DHT22;32071;49.036;9.344;2023-11-21T02:28:22;8.40;99.90
46364;DHT22;32071;49.036;9.344;2023-11-21T02:30:51;8.40;99.90
46364;DHT22;32071;49.036;9.344;2023-11-21T02:33:21;8.40;99.90
46364;DHT22;32071;49.036;9.344;2023-11-21T02:35:47;8.30;99.90
46364;DHT22;32071;49.036;9.344;2023-11-21T02:38:13;8.30;99.90
46364;DHT22;32071;49.036;9.344;2023-11-21T02:40:39;8.30;99.90
46364;DHT22;32071;49.036;9.344;2023-11-21T02:43:04;8.40;99.90
46364;DHT22;32071;49.036;9.344;2023-11-21T02:45:31;8.40;99.90
46364;DHT22;32071;49.036;9.344;2023-11-21T02:47:57;8.40;99.90
46364;DHT22;32071;49.036;9.344;2023-11-21T02:50:23;8.40;99.90
46364;DHT22;32071;49.036;9.344;2023-11-21T02:52:49;8.50;99.90
46364;DHT22;32071;49.036;9.344;2023-11-21T02:55:15;8.50;99.90
46364;DHT22;32071;49.036;9.344;2023-11-21T02:57:41;8.50;99.90
46364;DHT22;32071;49.036;9.344;2023-11-21T03:00:07;8.50;99.90
46364;DHT22;32071;49.036;9.344;2023-11-21T03:02:33;8.60;99.90
46364;DHT22;32071;49.036;9.344;2023-11-21T03:05:02;8.50;99.90
46364;DHT22;32071;49.036;9.344;2023-11-21T03:07:27;8.50;99.90
46364;DHT22;32071;49.036;9.344;2023-11-21T03:09:53;8.50;99.90
46364;DHT22;32071;49.036;9.344;2023-11-21T03:12:19;8.60;99.90
46364;DHT22;32071;49.036;9.344;2023-11-21T03:14:45;8.50;99.90
46364;DHT22;32071;49.036;9.344;2023-11-21T03:17:10;8.60;99.90
46364;DHT22;32071;49.036;9.344;2023-11-21T03:19:37;8.50;99.90
46364;DHT22;32071;49.036;9.344;2023-11-21T03:22:02;8.60;99.90
46364;DHT22;32071;49.036;9.344;2023-11-21T03:24:29;8.60;99.90
46364;DHT22;32071;49.036;9.344;2023-11-21T03:26:55;8.60;99.90
46364;DHT22;32071;49.036;9.344;2023-11-21T03:29:21;8.50;99.90
46364;DHT22;32071;49.036;9.344;2023-11-21T03:31:47;8.50;99.90
46364;DHT22;32071;49.036;9.344;2023-11-21T03:34:22;8.50;99.90
46364;DHT22;32071;49.036;9.344;2023-11-21T03:36:48;8.50;99.90
46364;DHT22;32071;49.036;9.344;2023-11-21T03:39:13;8.50;99.90
46364;DHT22;32071;49.036;9.344;2023-11-21T03:41:39;8.50;99.90
46364;DHT22;32071;49.036;9.344;2023-11-21T03:44:05;8.50;99.90
46364;DHT22;32071;49.036;9.344;2023-11-21T03:46:30;8.50;99.90
46364;DHT22;32071;49.036;9.344;2023-11-21T03:48:56;8.50;99.90
46364;DHT22;32071;49.036;9.344;2023-11-21T03:51:21;8.50;99.90
46364;DHT22;32071;49.036;9.344;2023-11-21T03:53:47;8.50;99.90
46364;DHT22;32071;49.036;9.344;2023-11-21T03:56:13;8.50;99.90
46364;DHT22;32071;49.036;9.344;2023-11-21T03:58:39;8.50;99.90
46364;DHT22;32071;49.036;9.344;2023-11-21T04:01:05;8.50;99.90
46364;DHT22;32071;49.036;9.344;2023-11-21T04:03:30;8.50;99.90
46364;DHT22;32071;49.036;9.344;2023-11-21T04:05:56;8.50;99.90
46364;DHT22;32071;49.036;9.344;2023-11-21T04:08:22;8.50;99.90
46364;DHT22;32071;49.036;9.344;2023-11-21T04:10:48;8.50;99.90
46364;DHT22;32071;49.036;9.344;2023-11-21T04:13:14;8.50;99.90
46364;DHT22;32071;49.036;9.344;2023-11-21T04:15:39;8.50;99.90
46364;DHT22;32071;49.036;9.344;2023-11-21T04:18:05;8.50;99.90
46364;DHT22;32071;49.036;9.344;2023-11-21T04:20:31;8.40;99.90
46364;DHT22;32071;49.036;9.344;2023-11-21T04:22:56;8.50;99.90
46364;DHT22;32071;49.036;9.344;2023-11-21T04:25:22;8.50;99.90
46364;DHT22;32071;49.036;9.344;2023-11-21T04:27:49;8.50;99.90
46364;DHT22;32071;49.036;9.344;2023-11-21T04:30:15;8.50;99.90
46364;DHT22;32071;49.036;9.344;2023-11-21T04:32:41;8.50;99.90
46364;DHT22;32071;49.036;9.344;2023-11-21T04:35:07;8.50;99.90
46364;DHT22;32071;49.036;9.344;2023-11-21T04:37:36;8.50;99.90
46364;DHT22;32071;49.036;9.344;2023-11-21T04:40:02;8.50;99.90
46364;DHT22;32071;49.036;9.344;2023-11-21T04:42:33;8.50;99.90
46364;DHT22;32071;49.036;9.344;2023-11-21T04:44:58;8.50;99.90
46364;DHT22;32071;49.036;9.344;2023-11-21T04:47:24;8.50;99.90
46364;DHT22;32071;49.036;9.344;2023-11-21T04:49:49;8.50;99.90
46364;DHT22;32071;49.036;9.344;2023-11-21T04:52:15;8.50;99.90
46364;DHT22;32071;49.036;9.344;2023-11-21T04:54:40;8.60;99.90
46364;DHT22;32071;49.036;9.344;2023-11-21T04:57:06;8.50;99.90
46364;DHT22;32071;49.036;9.344;2023-11-21T04:59:34;8.50;99.90
46364;DHT22;32071;49.036;9.344;2023-11-21T05:02:00;8.50;99.90
46364;DHT22;32071;49.036;9.344;2023-11-21T05:04:26;8.50;99.90
46364;DHT22;32071;49.036;9.344;2023-11-21T05:06:52;8.50;99.90
46364;DHT22;32071;49.036;9.344;2023-11-21T05:09:18;8.50;99.90
46364;DHT22;32071;49.036;9.344;2023-11-21T05:11:43;8.50;99.90
46364;DHT22;32071;49.036;9.344;2023-11-21T05:14:09;8.50;99.90
46364;DHT22;32071;49.036;9.344;2023-11-21T05:16:34;8.50;99.90
46364;DHT22;32071;49.036;9.344;2023-11-21T05:19:00;8.50;99.90
46364;DHT22;32071;49.036;9.344;2023-11-21T05:21:27;8.40;99.90
46364;DHT22;32071;49.036;9.344;2023-11-21T05:23:52;8.40;99.90
46364;DHT22;32071;49.036;9.344;2023-11-21T05:26:18;8.40;99.90
46364;DHT22;32071;49.036;9.344;2023-11-21T05:28:44;8.40;99.90
46364;DHT22;32071;49.036;9.344;2023-11-21T05:31:09;8.40;99.90
46364;DHT22;32071;49.036;9.344;2023-11-21T05:33:36;8.40;99.90
46364;DHT22;32071;49.036;9.344;2023-11-21T05:36:02;8.50;99.90
46364;DHT22;32071;49.036;9.344;2023-11-21T05:38:28;8.50;99.90
46364;DHT22;32071;49.036;9.344;2023-11-21T05:40:53;8.50;99.90
46364;DHT22;32071;49.036;9.344;2023-11-21T05:43:19;8.50;99.90
46364;DHT22;32071;49.036;9.344;2023-11-21T05:45:45;8.50;99.90
46364;DHT22;32071;49.036;9.344;2023-11-21T05:48:10;8.50;99.90
46364;DHT22;32071;49.036;9.344;2023-11-21T05:50:36;8.50;99.90
46364;DHT22;32071;49.036;9.344;2023-11-21T05:53:03;8.50;99.90
46364;DHT22;32071;49.036;9.344;2023-11-21T05:55:29;8.50;99.90
46364;DHT22;32071;49.036;9.344;2023-11-21T05:57:54;8.50;99.90
46364;DHT22;32071;49.036;9.344;2023-11-21T06:00:20;8.50;99.90
46364;DHT22;32071;49.036;9.344;2023-11-21T06:02:50;8.40;99.90
46364;DHT22;32071;49.036;9.344;2023-11-21T06:05:19;8.40;99.90
46364;DHT22;32071;49.036;9.344;2023-11-21T06:07:45;8.40;99.90
46364;DHT22;32071;49.036;9.344;2023-11-21T06:10:11;8.40;99.90
46364;DHT22;32071;49.036;9.344;2023-11-21T06:12:40;8.40;99.90
46364;DHT22;32071;49.036;9.344;2023-11-21T06:15:09;8.50;99.90
46364;DHT22;32071;49.036;9.344;2023-11-21T06:17:40;8.50;99.90
46364;DHT22;32071;49.036;9.344;2023-11-21T06:20:07;8.40;99.90
46364;DHT22;32071;49.036;9.344;2023-11-21T06:22:40;8.50;99.90
46364;DHT22;32071;49.036;9.344;2023-11-21T06:25:07;8.50;99.90
46364;DHT22;32071;49.036;9.344;2023-11-21T06:27:36;8.50;99.90
46364;DHT22;32071;49.036;9.344;2023-11-21T06:30:02;8.50;99.90
46364;DHT22;32071;49.036;9.344;2023-11-21T06:32:27;8.40;99.90
46364;DHT22;32071;49.036;9.344;2023-11-21T06:34:55;8.40;99.90
46364;DHT22;32071;49.036;9.344;2023-11-21T06:37:21;8.40;99.90
46364;DHT22;32071;49.036;9.344;2023-11-21T06:39:49;8.40;99.90
46364;DHT22;32071;49.036;9.344;2023-11-21T06:42:14;8.40;99.90
46364;DHT22;32071;49.036;9.344;2023-11-21T06:44:40;8.40;99.90
46364;DHT22;32071;49.036;9.344;2023-11-21T06:47:07;8.50;99.90
46364;DHT22;32071;49.036;9.344;2023-11-21T06:49:32;8.50;99.90
46364;DHT22;32071;49.036;9.344;2023-11-21T06:51:58;8.40;99.90
46364;DHT22;32071;49.036;9.344;2023-11-21T06:54:24;8.50;99.90
46364;DHT22;32071;49.036;9.344;2023-11-21T06:56:50;8.50;99.90
46364;DHT22;32071;49.036;9.344;2023-11-21T06:59:16;8.50;99.90
46364;DHT22;32071;49.036;9.344;2023-11-21T07:01:41;8.50;99.90
46364;DHT22;32071;49.036;9.344;2023-11-21T07:04:07;8.50;99.90
46364;DHT22;32071;49.036;9.344;2023-11-21T07:06:34;8.50;99.90
46364;DHT22;32071;49.036;9.344;2023-11-21T07:09:00;8.50;99.90
46364;DHT22;32071;49.036;9.344;2023-11-21T07:11:27;8.50;99.90
46364;DHT22;32071;49.036;9.344;2023-11-21T07:13:52;8.50;99.90
46364;DHT22;32071;49.036;9.344;2023-11-21T07:16:18;8.50;99.90
46364;DHT22;32071;49.036;9.344;2023-11-21T07:18:44;8.40;99.90
46364;DHT22;32071;49.036;9.344;2023-11-21T07:21:10;8.50;99.90
46364;DHT22;32071;49.036;9.344;2023-11-21T07:23:37;8.40;99.90
46364;DHT22;32071;49.036;9.344;2023-11-21T07:26:03;8.40;99.90
46364;DHT22;32071;49.036;9.344;2023-11-21T07:28:34;8.50;99.90
46364;DHT22;32071;49.036;9.344;2023-11-21T07:30:59;8.50;99.90
46364;DHT22;32071;49.036;9.344;2023-11-21T07:33:25;8.50;99.90
46364;DHT22;32071;49.036;9.344;2023-11-21T07:35:51;8.60;99.90
46364;DHT22;32071;49.036;9.344;2023-11-21T07:38:17;8.60;99.90
46364;DHT22;32071;49.036;9.344;2023-11-21T07:40:43;8.70;99.90
46364;DHT22;32071;49.036;9.344;2023-11-21T07:43:09;8.70;99.90
46364;DHT22;32071;49.036;9.344;2023-11-21T07:45:36;8.70;99.90
46364;DHT22;32071;49.036;9.344;2023-11-21T07:48:01;8.70;99.90
46364;DHT22;32071;49.036;9.344;2023-11-21T07:50:29;8.70;99.90
46364;DHT22;32071;49.036;9.344;2023-11-21T07:52:54;8.70;99.90
46364;DHT22;32071;49.036;9.344;2023-11-21T07:55:20;8.80;99.90
46364;DHT22;32071;49.036;9.344;2023-11-21T07:57:46;8.80;99.90
46364;DHT22;32071;49.036;9.344;2023-11-21T08:00:12;8.80;99.90
46364;DHT22;32071;49.036;9.344;2023-11-21T08:02:39;8.80;99.90
46364;DHT22;32071;49.036;9.344;2023-11-21T08:05:07;8.90;99.90
46364;DHT22;32071;49.036;9.344;2023-11-21T08:07:33;9.00;99.90
46364;DHT22;32071;49.036;9.344;2023-11-21T08:09:59;9.00;99.90
46364;DHT22;32071;49.036;9.344;2023-11-21T08:12:24;9.20;99.90
46364;DHT22;32071;49.036;9.344;2023-11-21T08:14:53;9.30;99.90
46364;DHT22;32071;49.036;9.344;2023-11-21T08:17:18;9.30;99.90
46364;DHT22;32071;49.036;9.344;2023-11-21T08:19:45;9.40;99.90
46364;DHT22;32071;49.036;9.344;2023-11-21T08:22:17;9.40;99.90
46364;DHT22;32071;49.036;9.344;2023-11-21T08:24:43;9.40;99.90
46364;DHT22;32071;49.036;9.344;2023-11-21T08:27:09;9.40;99.90
46364;DHT22;32071;49.036;9.344;2023-11-21T08:29:35;9.40;99.90
46364;DHT22;32071;49.036;9.344;2023-11-21T08:32:02;9.40;99.90
46364;DHT22;32071;49.036;9.344;2023-11-21T08:34:28;9.30;99.90
46364;DHT22;32071;49.036;9.344;2023-11-21T08:36:54;9.30;99.90
46364;DHT22;32071;49.036;9.344;2023-11-21T08:39:21;9.30;99.90
46364;DHT22;32071;49.036;9.344;2023-11-21T08:41:49;9.40;99.90
46364;DHT22;32071;49.036;9.344;2023-11-21T08:44:16;9.40;99.90
46364;DHT22;32071;49.036;9.344;2023-11-21T08:46:44;9.50;99.90
46364;DHT22;32071;49.036;9.344;2023-11-21T08:49:13;9.50;99.90
46364;DHT22;32071;49.036;9.344;2023-11-21T08:51:40;9.60;99.90
46364;DHT22;32071;49.036;9.344;2023-11-21T08:54:06;9.70;99.90
46364;DHT22;32071;49.036;9.344;2023-11-21T08:56:36;9.70;99.90
46364;DHT22;32071;49.036;9.344;2023-11-21T08:59:02;9.70;99.90
46364;DHT22;32071;49.036;9.344;2023-11-21T09:01:31;9.70;99.90
46364;DHT22;32071;49.036;9.344;2023-11-21T09:03:57;9.70;99.90
46364;DHT22;32071;49.036;9.344;2023-11-21T09:06:24;9.60;99.90
46364;DHT22;32071;49.036;9.344;2023-11-21T09:08:49;9.50;99.90
46364;DHT22;32071;49.036;9.344;2023-11-21T09:11:15;9.50;99.90
46364;DHT22;32071;49.036;9.344;2023-11-21T09:13:41;9.50;99.90
46364;DHT22;32071;49.036;9.344;2023-11-21T09:16:07;9.50;99.90
46364;DHT22;32071;49.036;9.344;2023-11-21T09:18:32;9.50;99.90
46364;DHT22;32071;49.036;9.344;2023-11-21T09:20:58;9.60;99.90
46364;DHT22;32071;49.036;9.344;2023-11-21T09:23:24;9.60;99.90
46364;DHT22;32071;49.036;9.344;2023-11-21T09:25:50;9.60;99.90
46364;DHT22;32071;49.036;9.344;2023-11-21T09:28:17;9.70;99.90
46364;DHT22;32071;49.036;9.344;2023-11-21T09:30:43;9.60;99.90
46364;DHT22;32071;49.036;9.344;2023-11-21T09:33:09;9.60;99.90
46364;DHT22;32071;49.036;9.344;2023-11-21T09:35:37;9.60;99.90
46364;DHT22;32071;49.036;9.344;2023-11-21T09:38:03;9.60;99.90
46364;DHT22;32071;49.036;9.344;2023-11-21T09:40:35;9.70;99.90
46364;DHT22;32071;49.036;9.344;2023-11-21T09:43:08;9.70;99.90
46364;DHT22;32071;49.036;9.344;2023-11-21T09:45:45;9.80;99.90
46364;DHT22;32071;49.036;9.344;2023-11-21T09:48:13;9.90;99.90
46364;DHT22;32071;49.036;9.344;2023-11-21T09:50:42;9.90;99.90
46364;DHT22;32071;49.036;9.344;2023-11-21T09:53:18;9.90;99.90
46364;DHT22;32071;49.036;9.344;2023-11-21T09:55:48;9.90;99.90
46364;DHT22;32071;49.036;9.344;2023-11-21T09:58:14;10.00;99.90
46364;DHT22;32071;49.036;9.344;2023-11-21T10:00:44;9.90;99.90
46364;DHT22;32071;49.036;9.344;2023-11-21T10:03:10;10.00;99.90
46364;DHT22;32071;49.036;9.344;2023-11-21T10:05:37;10.00;99.90
46364;DHT22;32071;49.036;9.344;2023-11-21T10:08:10;9.90;99.90
46364;DHT22;32071;49.036;9.344;2023-11-21T10:10:36;9.90;99.90
46364;DHT22;32071;49.036;9.344;2023-11-21T10:13:06;9.90;99.90
46364;DHT22;32071;49.036;9.344;2023-11-21T10:15:36;9.80;99.90
46364;DHT22;32071;49.036;9.344;2023-11-21T10:18:06;9.80;99.90
46364;DHT22;32071;49.036;9.344;2023-11-21T10:20:33;9.80;99.90
46364;DHT22;32071;49.036;9.344;2023-11-21T10:23:00;9.80;99.90
46364;DHT22;32071;49.036;9.344;2023-11-21T10:25:29;9.80;99.90
46364;DHT22;32071;49.036;9.344;2023-11-21T10:27:58;9.80;99.90
46364;DHT22;32071;49.036;9.344;2023-11-21T10:30:39;9.80;99.90
46364;DHT22;32071;49.036;9.344;2023-11-21T10:33:06;9.80;99.90
46364;DHT22;32071;49.036;9.344;2023-11-21T10:35:48;9.80;99.90
46364;DHT22;32071;49.036;9.344;2023-11-21T10:38:20;9.70;99.90
46364;DHT22;32071;49.036;9.344;2023-11-21T10:40:51;9.70;99.90
46364;DHT22;32071;49.036;9.344;2023-11-21T10:43:17;9.70;99.90
46364;DHT22;32071;49.036;9.344;2023-11-21T10:45:44;9.70;99.90
46364;DHT22;32071;49.036;9.344;2023-11-21T10:48:13;9.70;99.90
46364;DHT22;32071;49.036;9.344;2023-11-21T10:50:41;9.70;99.90
46364;DHT22;32071;49.036;9.344;2023-11-21T10:53:07;9.80;99.90
46364;DHT22;32071;49.036;9.344;2023-11-21T10:55:33;9.80;99.90
46364;DHT22;32071;49.036;9.344;2023-11-21T10:58:01;9.90;99.90
46364;DHT22;32071;49.036;9.344;2023-11-21T11:00:29;10.00;99.90
46364;DHT22;32071;49.036;9.344;2023-11-21T11:02:55;10.10;99.90
46364;DHT22;32071;49.036;9.344;2023-11-21T11:05:22;10.20;99.90
46364;DHT22;32071;49.036;9.344;2023-11-21T11:07:55;10.20;99.90
46364;DHT22;32071;49.036;9.344;2023-11-21T11:10:26;10.40;99.90
46364;DHT22;32071;49.036;9.344;2023-11-21T11:12:56;10.50;99.90
46364;DHT22;32071;49.036;9.344;2023-11-21T11:15:23;10.50;99.90
46364;DHT22;32071;49.036;9.344;2023-11-21T11:17:49;10.50;99.90
46364;DHT22;32071;49.036;9.344;2023-11-21T11:20:16;10.50;99.90
46364;DHT22;32071;49.036;9.344;2023-11-21T11:34:23;11.00;99.90
46364;DHT22;32071;49.036;9.344;2023-11-21T11:37:05;11.10;99.90
46364;DHT22;32071;49.036;9.344;2023-11-21T11:39:38;11.20;99.90
46364;DHT22;32071;49.036;9.344;2023-11-21T11:42:08;11.20;99.90
46364;DHT22;32071;49.036;9.344;2023-11-21T11:47:15;11.40;99.90
46364;DHT22;32071;49.036;9.344;2023-11-21T11:50:04;11.30;99.90
46364;DHT22;32071;49.036;9.344;2023-11-21T11:52:37;11.10;99.90
46364;DHT22;32071;49.036;9.344;2023-11-21T11:55:04;10.90;99.90
46364;DHT22;32071;49.036;9.344;2023-11-21T11:57:34;10.70;99.90
46364;DHT22;32071;49.036;9.344;2023-11-21T12:00:20;10.60;99.90
46364;DHT22;32071;49.036;9.344;2023-11-21T12:02:49;10.60;99.90
46364;DHT22;32071;49.036;9.344;2023-11-21T12:05:16;10.60;99.90
46364;DHT22;32071;49.036;9.344;2023-11-21T12:07:53;10.60;99.90
46364;DHT22;32071;49.036;9.344;2023-11-21T12:10:24;10.80;99.90
46364;DHT22;32071;49.036;9.344;2023-11-21T12:12:52;10.70;99.90
46364;DHT22;32071;49.036;9.344;2023-11-21T12:15:18;10.80;99.90
46364;DHT22;32071;49.036;9.344;2023-11-21T12:17:45;10.80;99.90
46364;DHT22;32071;49.036;9.344;2023-11-21T12:20:12;10.70;99.90
46364;DHT22;32071;49.036;9.344;2023-11-21T12:22:49;10.60;99.90
46364;DHT22;32071;49.036;9.344;2023-11-21T12:25:19;10.60;99.90
46364;DHT22;32071;49.036;9.344;2023-11-21T12:27:50;10.60;99.90
46364;DHT22;32071;49.036;9.344;2023-11-21T12:30:21;10.70;99.90
46364;DHT22;32071;49.036;9.344;2023-11-21T12:32:55;10.60;99.90
46364;DHT22;32071;49.036;9.344;2023-11-21T12:35:31;10.60;99.90
46364;DHT22;32071;49.036;9.344;2023-11-21T12:38:01;10.60;99.90
46364;DHT22;32071;49.036;9.344;2023-11-21T12:40:34;10.40;99.90
46364;DHT22;32071;49.036;9.344;2023-11-21T12:43:00;10.20;99.90
46364;DHT22;32071;49.036;9.344;2023-11-21T12:45:33;10.00;99.90
46364;DHT22;32071;49.036;9.344;2023-11-21T12:48:01;9.90;99.90
46364;DHT22;32071;49.036;9.344;2023-11-21T12:50:30;9.80;99.90
46364;DHT22;32071;49.036;9.344;2023-11-21T12:53:04;9.70;99.90
46364;DHT22;32071;49.036;9.344;2023-11-21T12:55:32;9.60;99.90
46364;DHT22;32071;49.036;9.344;2023-11-21T12:58:01;9.60;99.90
46364;DHT22;32071;49.036;9.344;2023-11-21T13:00:39;9.60;99.90
46364;DHT22;32071;49.036;9.344;2023-11-21T13:03:09;9.60;99.90
46364;DHT22;32071;49.036;9.344;2023-11-21T13:05:38;9.70;99.90
46364;DHT22;32071;49.036;9.344;2023-11-21T13:08:06;9.80;99.90
46364;DHT22;32071;49.036;9.344;2023-11-21T13:13:06;9.80;99.90
46364;DHT22;32071;49.036;9.344;2023-11-21T13:15:35;9.90;99.90
46364;DHT22;32071;49.036;9.344;2023-11-21T13:18:03;10.00;99.90
46364;DHT22;32071;49.036;9.344;2023-11-21T13:20:29;10.10;99.90
46364;DHT22;32071;49.036;9.344;2023-11-21T13:22:58;10.30;99.90
46364;DHT22;32071;49.036;9.344;2023-11-21T13:25:28;10.30;99.90
46364;DHT22;32071;49.036;9.344;2023-11-21T13:27:58;10.30;99.90
46364;DHT22;32071;49.036;9.344;2023-11-21T13:30:27;10.30;99.90
46364;DHT22;32071;49.036;9.344;2023-11-21T13:33:00;10.30;99.90
46364;DHT22;32071;49.036;9.344;2023-11-21T13:35:35;10.30;99.90
46364;DHT22;32071;49.036;9.344;2023-11-21T13:38:11;10.30;99.90
46364;DHT22;32071;49.036;9.344;2023-11-21T13:40:38;10.30;99.90
46364;DHT22;32071;49.036;9.344;2023-11-21T13:43:16;10.30;99.90
46364;DHT22;32071;49.036;9.344;2023-11-21T13:45:44;10.30;99.90
46364;DHT22;32071;49.036;9.344;2023-11-21T13:48:10;10.40;99.90
46364;DHT22;32071;49.036;9.344;2023-11-21T13:50:43;10.50;99.90
46364;DHT22;32071;49.036;9.344;2023-11-21T13:53:14;10.50;99.90
46364;DHT22;32071;49.036;9.344;2023-11-21T13:55:52;10.50;99.90
46364;DHT22;32071;49.036;9.344;2023-11-21T13:58:23;10.50;99.90
46364;DHT22;32071;49.036;9.344;2023-11-21T14:01:00;10.50;99.90
46364;DHT22;32071;49.036;9.344;2023-11-21T14:03:27;10.50;99.90
46364;DHT22;32071;49.036;9.344;2023-11-21T14:06:05;10.50;99.90
46364;DHT22;32071;49.036;9.344;2023-11-21T14:08:40;10.40;99.90
46364;DHT22;32071;49.036;9.344;2023-11-21T14:11:05;10.30;99.90
46364;DHT22;32071;49.036;9.344;2023-11-21T14:13:32;10.30;99.90
46364;DHT22;32071;49.036;9.344;2023-11-21T14:15:58;10.30;99.90
46364;DHT22;32071;49.036;9.344;2023-11-21T14:18:29;10.20;99.90
46364;DHT22;32071;49.036;9.344;2023-11-21T14:21:04;10.20;99.90
46364;DHT22;32071;49.036;9.344;2023-11-21T14:23:31;10.10;99.90
46364;DHT22;32071;49.036;9.344;2023-11-21T14:25:58;10.10;99.90
46364;DHT22;32071;49.036;9.344;2023-11-21T14:28:26;10.10;99.90
46364;DHT22;32071;49.036;9.344;2023-11-21T14:30:52;10.10;99.90
46364;DHT22;32071;49.036;9.344;2023-11-21T14:33:17;10.10;99.90
46364;DHT22;32071;49.036;9.344;2023-11-21T14:35:43;10.00;99.90
46364;DHT22;32071;49.036;9.344;2023-11-21T14:38:09;10.00;99.90
46364;DHT22;32071;49.036;9.344;2023-11-21T14:40:36;9.90;99.90
46364;DHT22;32071;49.036;9.344;2023-11-21T14:43:02;9.90;99.90
46364;DHT22;32071;49.036;9.344;2023-11-21T14:45:31;10.00;99.90
46364;DHT22;32071;49.036;9.344;2023-11-21T14:47:57;10.00;99.90
46364;DHT22;32071;49.036;9.344;2023-11-21T14:50:28;10.00;99.90
46364;DHT22;32071;49.036;9.344;2023-11-21T14:53:17;10.10;99.90
46364;DHT22;32071;49.036;9.344;2023-11-21T14:56:01;10.00;99.90
46364;DHT22;32071;49.036;9.344;2023-11-21T14:58:29;9.90;99.90
46364;DHT22;32071;49.036;9.344;2023-11-21T15:00:58;9.80;99.90
46364;DHT22;32071;49.036;9.344;2023-11-21T15:03:25;9.80;99.90
46364;DHT22;32071;49.036;9.344;2023-11-21T15:05:58;9.80;99.90
46364;DHT22;32071;49.036;9.344;2023-11-21T15:08:25;9.70;99.90
46364;DHT22;32071;49.036;9.344;2023-11-21T15:10:57;9.60;99.90
46364;DHT22;32071;49.036;9.344;2023-11-21T15:13:23;9.50;99.90
46364;DHT22;32071;49.036;9.344;2023-11-21T15:15:51;9.50;99.90
46364;DHT22;32071;49.036;9.344;2023-11-21T15:18:20;9.40;99.90
46364;DHT22;32071;49.036;9.344;2023-11-21T15:20:45;9.40;99.90
46364;DHT22;32071;49.036;9.344;2023-11-21T15:23:11;9.40;99.90
46364;DHT22;32071;49.036;9.344;2023-11-21T15:25:38;9.30;99.90
46364;DHT22;32071;49.036;9.344;2023-11-21T15:28:04;9.20;99.90
46364;DHT22;32071;49.036;9.344;2023-11-21T15:30:31;9.20;99.90
46364;DHT22;32071;49.036;9.344;2023-11-21T15:32:58;9.10;99.90
46364;DHT22;32071;49.036;9.344;2023-11-21T15:35:23;9.00;99.90
46364;DHT22;32071;49.036;9.344;2023-11-21T15:37:49;8.90;99.90
46364;DHT22;32071;49.036;9.344;2023-11-21T15:40:15;8.80;99.90
46364;DHT22;32071;49.036;9.344;2023-11-21T15:42:42;8.70;99.90
46364;DHT22;32071;49.036;9.344;2023-11-21T15:45:09;8.60;99.90
46364;DHT22;32071;49.036;9.344;2023-11-21T15:47:35;8.60;99.90
46364;DHT22;32071;49.036;9.344;2023-11-21T15:50:04;8.50;99.90
46364;DHT22;32071;49.036;9.344;2023-11-21T15:52:33;8.40;99.90
46364;DHT22;32071;49.036;9.344;2023-11-21T15:54:59;8.30;99.90
46364;DHT22;32071;49.036;9.344;2023-11-21T15:57:25;8.20;99.90
46364;DHT22;32071;49.036;9.344;2023-11-21T15:59:50;8.10;99.90
46364;DHT22;32071;49.036;9.344;2023-11-21T16:02:16;8.10;99.90